createdAt,value
2019-01-26T00:00:23.743Z,0.63
2019-01-26T00:03:27.504Z,0.65
2019-01-26T00:06:31.234Z,0.58
2019-01-26T00:09:34.920Z,0.63
2019-01-26T00:12:38.564Z,0.66
2019-01-26T00:15:42.311Z,0.57
2019-01-26T00:18:45.985Z,0.65
2019-01-26T00:21:49.664Z,0.62
2019-01-26T00:24:53.446Z,0.62
2019-01-26T00:27:57.066Z,0.60
2019-01-26T00:31:00.715Z,0.61
2019-01-26T00:34:04.493Z,0.71
2019-01-26T00:37:08.234Z,0.68
2019-01-26T00:40:12.000Z,0.66
2019-01-26T00:43:15.572Z,0.67
2019-01-26T00:46:19.183Z,0.76
2019-01-26T00:49:22.877Z,0.80
2019-01-26T00:52:26.540Z,0.75
2019-01-26T00:55:30.132Z,0.75
2019-01-26T00:58:33.773Z,0.71
2019-01-26T01:01:37.412Z,0.80
2019-01-26T01:04:41.149Z,0.80
2019-01-26T01:07:44.871Z,0.75
2019-01-26T01:10:48.459Z,0.87
2019-01-26T01:13:52.004Z,0.80
2019-01-26T01:16:55.707Z,0.86
2019-01-26T01:19:59.349Z,0.83
2019-01-26T01:23:03.061Z,0.81
2019-01-26T01:26:06.724Z,0.87
2019-01-26T01:29:10.498Z,0.91
2019-01-26T01:32:14.055Z,0.90
2019-01-26T01:35:17.667Z,0.97
2019-01-26T01:38:21.301Z,0.98
2019-01-26T01:41:24.933Z,1.00
2019-01-26T01:44:28.570Z,0.99
2019-01-26T01:47:32.169Z,1.07
2019-01-26T01:50:35.776Z,1.19
2019-01-26T01:53:39.497Z,1.22
2019-01-26T01:56:43.149Z,1.16
2019-01-26T01:59:46.870Z,1.21
2019-01-26T02:02:51.467Z,1.21
2019-01-26T02:05:56.157Z,1.29
2019-01-26T02:08:59.749Z,1.22
2019-01-26T02:12:03.303Z,1.32
2019-01-26T02:15:07.530Z,1.36
2019-01-26T02:18:11.189Z,1.38
2019-01-26T02:21:14.856Z,1.37
2019-01-26T02:24:18.496Z,1.35
2019-01-26T02:27:22.290Z,1.35
2019-01-26T02:30:25.877Z,1.36
2019-01-26T02:33:29.406Z,1.45
2019-01-26T02:36:33.108Z,1.44
2019-01-26T02:39:36.713Z,1.48
2019-01-26T02:42:40.439Z,1.39
2019-01-26T02:45:44.102Z,1.44
2019-01-26T02:48:47.692Z,1.46
2019-01-26T02:51:51.186Z,1.49
2019-01-26T02:54:54.856Z,1.45
2019-01-26T02:57:58.542Z,1.50
2019-01-26T03:01:02.142Z,1.52
2019-01-26T03:04:05.718Z,1.51
2019-01-26T03:07:09.373Z,1.58
2019-01-26T03:10:14.767Z,1.63
2019-01-26T03:13:18.408Z,1.62
2019-01-26T03:16:21.995Z,1.66
2019-01-26T03:19:25.614Z,1.58
2019-01-26T03:22:29.185Z,1.72
2019-01-26T03:25:32.804Z,1.69
2019-01-26T03:28:36.396Z,1.70
2019-01-26T03:31:39.982Z,1.67
2019-01-26T03:34:43.541Z,1.61
2019-01-26T03:37:47.268Z,1.73
2019-01-26T03:40:50.770Z,1.61
2019-01-26T03:43:54.297Z,1.64
2019-01-26T03:46:57.905Z,1.67
2019-01-26T03:50:01.551Z,1.68
2019-01-26T03:53:05.172Z,1.59
2019-01-26T03:56:08.722Z,1.56
2019-01-26T03:59:12.431Z,1.58
2019-01-26T04:02:16.114Z,1.60
2019-01-26T04:05:19.748Z,1.59
2019-01-26T04:08:23.407Z,1.56
2019-01-26T04:11:27.006Z,1.68
2019-01-26T04:14:30.628Z,1.66
2019-01-26T04:17:34.279Z,1.56
2019-01-26T04:20:37.982Z,1.61
2019-01-26T04:23:41.620Z,1.58
2019-01-26T04:26:45.280Z,1.59
2019-01-26T04:29:48.958Z,1.56
2019-01-26T04:32:52.527Z,1.54
2019-01-26T04:35:56.144Z,1.57
2019-01-26T04:38:59.742Z,1.57
2019-01-26T04:42:03.379Z,1.67
2019-01-26T04:45:08.797Z,1.58
2019-01-26T04:48:12.425Z,1.54
2019-01-26T04:51:16.045Z,1.62
2019-01-26T04:54:19.617Z,1.54
2019-01-26T04:57:23.230Z,1.58
2019-01-26T05:00:28.036Z,1.62
2019-01-26T05:03:31.667Z,1.61
2019-01-26T05:06:35.235Z,1.58
2019-01-26T05:09:38.988Z,1.58
2019-01-26T05:12:42.582Z,1.65
2019-01-26T05:15:46.182Z,1.63
2019-01-26T05:18:49.731Z,1.61
2019-01-26T05:21:53.410Z,1.64
2019-01-26T05:24:57.098Z,1.65
2019-01-26T05:28:00.804Z,1.65
2019-01-26T05:31:04.512Z,1.63
2019-01-26T05:34:08.203Z,1.71
2019-01-26T05:37:11.931Z,1.65
2019-01-26T05:40:16.230Z,1.70
2019-01-26T05:43:19.920Z,1.72
2019-01-26T05:46:23.610Z,1.76
2019-01-26T05:49:27.267Z,1.72
2019-01-26T05:52:30.967Z,1.71
2019-01-26T05:55:34.687Z,1.71
2019-01-26T05:58:38.286Z,1.77
2019-01-26T06:01:42.046Z,1.80
2019-01-26T06:04:45.652Z,1.86
2019-01-26T06:07:50.133Z,1.78
2019-01-26T06:10:52.969Z,1.88
2019-01-26T06:13:56.678Z,1.84
2019-01-26T06:17:00.207Z,1.83
2019-01-26T06:20:03.985Z,1.85
2019-01-26T06:23:07.610Z,1.93
2019-01-26T06:26:11.200Z,1.92
2019-01-26T06:29:14.819Z,1.90
2019-01-26T06:32:18.568Z,1.86
2019-01-26T06:35:22.263Z,1.88
2019-01-26T06:38:25.945Z,1.91
2019-01-26T06:41:29.564Z,1.89
2019-01-26T06:44:33.184Z,1.90
2019-01-26T06:47:37.002Z,1.99
2019-01-26T06:50:40.706Z,1.98
2019-01-26T06:53:44.403Z,1.96
2019-01-26T06:56:49.171Z,1.96
2019-01-26T06:59:52.841Z,2.00
2019-01-26T07:02:56.652Z,1.97
2019-01-26T07:06:11.422Z,1.99
2019-01-26T07:09:15.178Z,1.97
2019-01-26T07:12:18.963Z,2.03
2019-01-26T07:15:22.730Z,2.03
2019-01-26T07:18:26.246Z,2.05
2019-01-26T07:21:29.929Z,2.06
2019-01-26T07:24:33.622Z,2.06
2019-01-26T07:27:37.391Z,2.07
2019-01-26T07:30:41.080Z,2.15
2019-01-26T07:33:44.962Z,2.18
2019-01-26T07:36:48.595Z,2.15
2019-01-26T07:39:53.143Z,2.15
2019-01-26T07:42:56.882Z,2.23
2019-01-26T07:46:00.587Z,2.25
2019-01-26T07:49:04.294Z,2.22
2019-01-26T07:52:07.873Z,2.29
2019-01-26T07:55:11.621Z,2.28
2019-01-26T07:58:15.211Z,2.47
2019-01-26T08:01:18.858Z,2.35
2019-01-26T08:04:22.469Z,2.37
2019-01-26T08:07:26.352Z,2.36
2019-01-26T08:10:32.814Z,2.40
2019-01-26T08:13:36.495Z,2.37
2019-01-26T08:16:40.245Z,2.45
2019-01-26T08:19:43.947Z,2.45
2019-01-26T08:22:48.711Z,2.43
2019-01-26T08:25:52.475Z,2.48
2019-01-26T08:28:56.192Z,2.55
2019-01-26T08:32:00.116Z,2.53
2019-01-26T08:35:05.237Z,2.52
2019-01-26T08:38:08.990Z,2.54
2019-01-26T08:41:12.757Z,2.55
2019-01-26T08:44:16.451Z,2.64
2019-01-26T08:47:20.150Z,2.65
2019-01-26T08:50:25.136Z,2.63
2019-01-26T08:53:28.778Z,2.65
2019-01-26T08:56:32.591Z,2.67
2019-01-26T08:59:36.229Z,2.65
2019-01-26T09:04:46.959Z,2.65
2019-01-26T09:07:50.788Z,2.87
2019-01-26T09:10:54.761Z,2.87
2019-01-26T09:13:58.406Z,2.90
2019-01-26T09:17:02.214Z,2.99
2019-01-26T09:20:07.882Z,3.04
2019-01-26T09:23:11.649Z,3.10
2019-01-26T09:26:17.125Z,3.07
2019-01-26T09:29:20.783Z,3.08
2019-01-26T09:32:24.406Z,3.08
2019-01-26T09:35:28.026Z,3.12
2019-01-26T09:38:31.681Z,3.15
2019-01-26T09:41:35.309Z,3.18
2019-01-26T09:44:38.955Z,3.21
2019-01-26T09:47:42.572Z,3.20
2019-01-26T09:50:46.355Z,3.24
2019-01-26T09:53:49.887Z,3.16
2019-01-26T09:56:53.489Z,3.13
2019-01-26T09:59:57.087Z,3.14
2019-01-26T10:03:00.673Z,3.10
2019-01-26T10:06:04.323Z,3.15
2019-01-26T10:09:10.922Z,3.18
2019-01-26T10:12:14.522Z,3.19
2019-01-26T10:15:18.496Z,3.24
2019-01-26T10:18:22.152Z,3.31
2019-01-26T10:21:25.871Z,3.33
2019-01-26T10:24:29.523Z,3.34
2019-01-26T10:27:33.290Z,3.40
2019-01-26T10:30:41.505Z,3.37
2019-01-26T10:33:45.235Z,3.44
2019-01-26T10:36:53.269Z,3.50
2019-01-26T10:39:56.868Z,3.58
2019-01-26T10:43:01.329Z,3.66
2019-01-26T10:46:05.111Z,3.61
2019-01-26T10:49:08.723Z,3.78
2019-01-26T10:52:12.997Z,3.90
2019-01-26T10:55:19.243Z,4.13
2019-01-26T10:58:24.750Z,4.34
2019-01-26T11:01:28.657Z,4.41
2019-01-26T11:04:32.785Z,4.32
2019-01-26T11:07:36.681Z,4.37
2019-01-26T11:10:40.662Z,4.34
2019-01-26T11:13:45.580Z,4.39
2019-01-26T11:16:49.224Z,4.39
2019-01-26T11:19:52.781Z,4.33
2019-01-26T11:23:03.763Z,4.38
2019-01-26T11:26:08.718Z,4.36
2019-01-26T11:29:13.341Z,4.40
2019-01-26T11:35:49.027Z,4.30
2019-01-26T11:38:52.721Z,4.15
2019-01-26T11:41:56.944Z,4.17
2019-01-26T11:47:10.092Z,4.15
2019-01-26T11:50:18.314Z,4.17
2019-01-26T11:53:22.644Z,4.19
2019-01-26T11:56:31.916Z,4.19
2019-01-26T11:59:36.128Z,4.24
2019-01-26T12:02:48.379Z,4.20
2019-01-26T12:05:58.453Z,4.18
2019-01-26T12:09:05.137Z,4.19
2019-01-26T12:15:41.359Z,4.19
2019-01-26T12:18:45.836Z,4.21
2019-01-26T12:25:21.083Z,4.29
2019-01-26T12:28:24.739Z,4.30
2019-01-26T12:31:28.561Z,4.38
2019-01-26T12:34:32.539Z,4.33
2019-01-26T12:37:36.193Z,4.38
2019-01-26T12:40:40.988Z,4.43
2019-01-26T12:43:44.599Z,4.48
2019-01-26T12:46:48.388Z,4.50
2019-01-26T12:49:52.042Z,4.56
2019-01-26T12:52:55.683Z,4.56
2019-01-26T12:55:59.310Z,4.56
2019-01-26T12:59:04.070Z,4.49
2019-01-26T13:02:07.914Z,4.45
2019-01-26T13:05:11.602Z,4.45
2019-01-26T13:08:15.374Z,4.45
2019-01-26T13:11:22.943Z,4.48
2019-01-26T13:14:26.611Z,4.52
2019-01-26T13:17:30.290Z,4.52
2019-01-26T13:20:34.024Z,4.41
2019-01-26T13:23:37.570Z,4.35
2019-01-26T13:26:47.881Z,4.28
2019-01-26T13:29:51.514Z,4.21
2019-01-26T13:32:55.265Z,4.10
2019-01-26T13:35:58.945Z,4.08
2019-01-26T13:39:02.592Z,4.07
2019-01-26T13:42:06.499Z,4.14
2019-01-26T13:45:13.091Z,4.07
2019-01-26T13:48:16.675Z,4.00
2019-01-26T13:51:22.411Z,4.09
2019-01-26T13:54:26.252Z,4.08
2019-01-26T13:57:30.474Z,4.03
2019-01-26T14:00:34.157Z,4.03
2019-01-26T14:03:38.156Z,3.99
2019-01-26T14:06:42.215Z,4.00
2019-01-26T14:12:56.239Z,4.00
2019-01-26T14:15:59.947Z,4.06
2019-01-26T14:19:03.609Z,4.04
2019-01-26T14:22:07.221Z,4.09
2019-01-26T14:25:11.101Z,4.06
2019-01-26T14:28:14.962Z,4.10
2019-01-26T14:31:18.625Z,4.11
2019-01-26T14:34:22.201Z,4.11
2019-01-26T14:37:25.819Z,4.18
2019-01-26T14:40:29.553Z,4.18
2019-01-26T14:43:33.206Z,4.15
2019-01-26T14:46:36.870Z,4.25
2019-01-26T14:49:40.548Z,4.25
2019-01-26T14:52:44.257Z,4.21
2019-01-26T14:55:48.027Z,4.17
2019-01-26T14:58:51.684Z,4.15
2019-01-26T15:01:55.364Z,4.18
2019-01-26T15:04:58.992Z,4.18
2019-01-26T15:08:02.688Z,4.20
2019-01-26T15:11:06.961Z,4.29
2019-01-26T15:14:10.642Z,4.21
2019-01-26T15:17:14.320Z,4.16
2019-01-26T15:20:25.842Z,4.24
2019-01-26T15:23:30.331Z,4.22
2019-01-26T15:26:34.099Z,4.33
2019-01-26T15:29:37.693Z,4.38
2019-01-26T15:32:41.297Z,4.35
2019-01-26T15:35:45.017Z,4.33
2019-01-26T15:38:49.068Z,4.35
2019-01-26T15:41:52.759Z,4.27
2019-01-26T15:44:56.324Z,4.26
2019-01-26T15:48:00.041Z,4.30
2019-01-26T15:51:03.699Z,4.27
2019-01-26T15:54:07.405Z,4.28
2019-01-26T15:57:12.840Z,4.30
2019-01-26T16:00:19.037Z,4.32
2019-01-26T16:03:22.802Z,4.28
2019-01-26T16:06:26.886Z,4.32
2019-01-26T16:09:31.139Z,4.30
2019-01-26T16:12:34.719Z,4.35
2019-01-26T16:15:39.428Z,4.42
2019-01-26T16:18:43.469Z,4.41
2019-01-26T16:21:47.399Z,4.43
2019-01-26T16:24:51.028Z,4.46
2019-01-26T16:27:54.729Z,4.48
2019-01-26T16:30:58.492Z,4.42
2019-01-26T16:34:02.547Z,4.45
2019-01-26T16:37:06.241Z,4.40
2019-01-26T16:40:13.125Z,4.49
2019-01-26T16:43:17.353Z,4.45
2019-01-26T16:46:23.609Z,4.40
2019-01-26T16:49:28.359Z,4.49
2019-01-26T16:52:32.274Z,4.45
2019-01-26T16:55:37.357Z,4.45
2019-01-26T16:58:41.942Z,4.42
2019-01-26T17:01:46.623Z,4.40
2019-01-26T17:04:51.145Z,4.40
2019-01-26T17:07:56.270Z,4.46
2019-01-26T17:11:02.170Z,4.47
2019-01-26T17:14:07.609Z,4.39
2019-01-26T17:17:11.185Z,4.45
2019-01-26T17:20:18.205Z,4.45
2019-01-26T17:23:22.104Z,4.42
2019-01-26T17:26:25.813Z,4.42
2019-01-26T17:29:29.396Z,4.41
2019-01-26T17:32:33.034Z,4.41
2019-01-26T17:35:37.294Z,4.38
2019-01-26T17:38:40.973Z,4.42
2019-01-26T17:41:45.820Z,4.48
2019-01-26T17:44:49.521Z,4.50
2019-01-26T17:47:53.646Z,4.50
2019-01-26T17:50:58.288Z,4.60
2019-01-26T17:54:01.977Z,4.50
2019-01-26T17:57:06.508Z,4.45
2019-01-26T18:00:13.544Z,4.39
2019-01-26T18:03:17.291Z,4.42
2019-01-26T18:06:21.084Z,4.36
2019-01-26T18:09:24.793Z,4.40
2019-01-26T18:12:28.647Z,4.39
2019-01-26T18:15:32.322Z,4.36
2019-01-26T18:18:36.181Z,4.46
2019-01-26T18:21:40.985Z,4.42
2019-01-26T18:24:44.290Z,4.38
2019-01-26T18:27:48.491Z,4.37
2019-01-26T18:30:52.307Z,4.38
2019-01-26T18:33:56.103Z,4.42
2019-01-26T18:37:00.985Z,4.32
2019-01-26T18:40:06.007Z,4.35
2019-01-26T18:43:09.829Z,4.36
2019-01-26T18:46:13.593Z,4.38
2019-01-26T18:49:17.356Z,4.37
2019-01-26T18:52:21.116Z,4.44
2019-01-26T18:55:24.860Z,4.42
2019-01-26T18:58:28.989Z,4.46
2019-01-26T19:01:33.122Z,4.45
2019-01-26T19:04:42.649Z,4.51
2019-01-26T19:07:46.914Z,4.45
2019-01-26T19:10:50.561Z,4.51
2019-01-26T19:13:54.542Z,4.47
2019-01-26T19:16:58.652Z,4.50
2019-01-26T19:20:02.357Z,4.46
2019-01-26T19:23:07.639Z,4.49
2019-01-26T19:26:11.436Z,4.51
2019-01-26T19:29:17.850Z,4.51
2019-01-26T19:32:22.153Z,4.55
2019-01-26T19:35:25.980Z,4.67
2019-01-26T19:38:29.621Z,4.69
2019-01-26T19:41:33.767Z,4.59
2019-01-26T19:44:37.750Z,4.56
2019-01-26T19:47:41.541Z,4.54
2019-01-26T19:50:45.249Z,4.52
2019-01-26T19:53:48.988Z,4.57
2019-01-26T19:56:52.943Z,4.62
2019-01-26T19:59:57.137Z,4.61
2019-01-26T20:03:00.758Z,4.55
2019-01-26T20:06:04.431Z,4.55
2019-01-26T20:09:09.585Z,4.51
2019-01-26T20:12:13.428Z,4.48
2019-01-26T20:15:19.503Z,4.53
2019-01-26T20:18:23.477Z,4.49
2019-01-26T20:21:29.225Z,4.47
2019-01-26T20:24:32.956Z,4.46
2019-01-26T20:27:36.607Z,4.46
2019-01-26T20:30:40.476Z,4.51
2019-01-26T20:33:44.005Z,4.53
2019-01-26T20:36:47.674Z,4.55
2019-01-26T20:39:51.286Z,4.57
2019-01-26T20:42:55.034Z,4.59
2019-01-26T20:45:58.912Z,4.58
2019-01-26T20:49:02.534Z,4.58
2019-01-26T20:52:06.268Z,4.57
2019-01-26T20:55:10.478Z,4.54
2019-01-26T20:58:14.204Z,4.53
2019-01-26T21:01:17.858Z,4.55
2019-01-26T21:04:21.486Z,4.55
2019-01-26T21:07:25.213Z,4.56
2019-01-26T21:10:30.055Z,4.55
2019-01-26T21:13:33.826Z,4.55
2019-01-26T21:16:37.618Z,4.54
2019-01-26T21:19:42.290Z,4.53
2019-01-26T21:22:46.091Z,4.53
2019-01-26T21:25:49.996Z,4.53
2019-01-26T21:28:53.691Z,4.51
2019-01-26T21:31:58.012Z,4.50
2019-01-26T21:35:02.773Z,4.45
2019-01-26T21:38:06.456Z,4.46
2019-01-26T21:41:10.199Z,4.43
2019-01-26T21:44:13.769Z,4.45
2019-01-26T21:47:17.327Z,4.48
2019-01-26T21:50:25.586Z,4.50
2019-01-26T21:53:29.316Z,4.48
2019-01-26T21:56:33.456Z,4.48
2019-01-26T21:59:37.333Z,4.48
2019-01-26T22:02:40.985Z,4.49
2019-01-26T22:05:44.919Z,4.51
2019-01-26T22:08:49.294Z,4.56
2019-01-26T22:11:52.951Z,4.59
2019-01-26T22:14:56.581Z,4.68
2019-01-26T22:18:00.181Z,4.71
2019-01-26T22:21:03.996Z,4.71
2019-01-26T22:24:07.694Z,4.72
2019-01-26T22:27:11.714Z,4.73
2019-01-26T22:30:19.984Z,4.77
2019-01-26T22:33:24.122Z,4.76
2019-01-26T22:36:28.091Z,4.72
2019-01-26T22:39:31.962Z,4.72
2019-01-26T22:42:35.674Z,4.67
2019-01-26T22:45:39.681Z,4.76
2019-01-26T22:48:43.288Z,4.71
2019-01-26T22:51:53.225Z,4.72
2019-01-26T22:54:51.484Z,4.75
2019-01-26T22:57:55.335Z,4.77
2019-01-26T23:01:10.637Z,4.87
2019-01-26T23:05:26.158Z,4.84
2019-01-26T23:08:30.953Z,4.78
2019-01-26T23:12:21.773Z,4.80
2019-01-26T23:16:51.978Z,4.79
2019-01-26T23:20:01.836Z,4.86
2019-01-26T23:23:24.181Z,4.87
2019-01-26T23:31:06.607Z,4.86
2019-01-26T23:34:10.285Z,4.89
2019-01-26T23:37:14.077Z,4.89
2019-01-26T23:40:17.897Z,4.90
2019-01-26T23:43:21.575Z,4.92
2019-01-26T23:46:25.211Z,4.89
2019-01-26T23:49:28.876Z,4.93
2019-01-26T23:52:32.539Z,4.89
2019-01-26T23:55:36.153Z,4.87
2019-01-26T23:58:39.792Z,4.88
